Time;durP1;ratioP1;P1;durP2;ratioP2;P2;SDS_P1;SDS_P2;PMS_P1;PMS_P2;Temp;Humidity;BMP_temperature;BMP_pressure;BME280_temperature;BME280_humidity;BME280_pressure;Samples;Min_cycle;Max_cycle;Signal;HPM_P1;HPM_P2
2021/01/17 00:00:15;;;;;;;12.80;11.50;;;;;21.90;100476.00;;;;2059970;28;20633;-66
2021/01/17 00:01:15;;;;;;;13.80;12.60;;;;;21.90;100480.00;;;;2076406;28;20768;-65
2021/01/17 00:02:16;;;;;;;11.80;10.70;;;;;21.90;100480.00;;;;2067434;28;20234;-66
2021/01/17 00:03:17;;;;;;;13.00;11.80;;;;;21.90;100476.00;;;;2070873;28;20309;-66
2021/01/17 00:04:17;;;;;;;12.63;11.47;;;;;21.80;100471.00;;;;2070989;28;20730;-66
2021/01/17 00:05:20;;;;;;;12.83;11.70;;;;;21.80;100477.00;;;;2067917;28;20581;-65
2021/01/17 00:06:20;;;;;;;12.70;11.50;;;;;21.80;100470.00;;;;2065440;28;20227;-66
2021/01/17 00:07:20;;;;;;;12.67;11.50;;;;;21.80;100469.00;;;;2068056;28;20634;-66
2021/01/17 00:08:21;;;;;;;11.93;10.93;;;;;21.80;100459.00;;;;2065603;28;20607;-66
2021/01/17 00:09:21;;;;;;;11.27;10.27;;;;;21.80;100458.00;;;;2059158;28;20650;-66
2021/01/17 00:10:23;;;;;;;11.87;10.80;;;;;21.80;100460.00;;;;2057065;28;20223;-66
2021/01/17 00:11:24;;;;;;;12.02;11.02;;;;;21.80;100452.00;;;;2067054;28;20223;-65
2021/01/17 00:12:24;;;;;;;11.27;10.27;;;;;21.80;100451.00;;;;2065551;28;20206;-65
2021/01/17 00:13:24;;;;;;;11.83;10.83;;;;;21.80;100447.00;;;;2067323;28;20224;-65
2021/01/17 00:14:25;;;;;;;12.10;11.00;;;;;21.80;100447.00;;;;2066143;28;20230;-65
2021/01/17 00:15:25;;;;;;;11.93;10.83;;;;;21.80;100444.00;;;;2067010;28;20690;-66
2021/01/17 00:16:25;;;;;;;12.30;11.20;;;;;21.80;100448.00;;;;2066322;28;20218;-65
2021/01/17 00:17:27;;;;;;;11.87;10.87;;;;;21.80;100440.00;;;;2067264;28;20222;-65
2021/01/17 00:18:27;;;;;;;12.57;11.48;;;;;21.70;100443.00;;;;2065975;28;20217;-66
2021/01/17 00:19:28;;;;;;;12.47;11.30;;;;;21.70;100436.00;;;;2056148;28;20674;-66
2021/01/17 00:20:29;;;;;;;11.53;10.53;;;;;21.70;100436.00;;;;2065576;28;20241;-66
2021/01/17 00:21:30;;;;;;;11.88;10.88;;;;;21.70;100434.00;;;;2066657;28;20579;-66
2021/01/17 00:22:30;;;;;;;11.30;10.30;;;;;21.70;100426.00;;;;2066922;28;20218;-65
2021/01/17 00:23:30;;;;;;;11.43;10.30;;;;;21.70;100428.00;;;;2066625;28;20687;-66
2021/01/17 00:24:31;;;;;;;11.67;10.57;;;;;21.70;100435.00;;;;2066343;28;20921;-66
2021/01/17 00:25:31;;;;;;;11.93;10.87;;;;;21.70;100435.00;;;;2066393;28;20708;-66
2021/01/17 00:26:35;;;;;;;11.30;10.30;;;;;21.70;100428.00;;;;2066948;28;20709;-66
2021/01/17 00:27:35;;;;;;;10.82;9.93;;;;;21.70;100425.00;;;;2065911;28;20243;-66
2021/01/17 00:28:36;;;;;;;10.93;9.93;;;;;21.70;100432.00;;;;2067688;28;20712;-66
2021/01/17 00:29:36;;;;;;;10.57;9.67;;;;;21.70;100429.00;;;;2065894;28;20218;-66
2021/01/17 00:30:36;;;;;;;10.30;9.50;;;;;21.70;100423.00;;;;2068885;28;20210;-65
2021/01/17 00:31:37;;;;;;;10.23;9.33;;;;;21.70;100426.00;;;;2070263;28;20208;-66
2021/01/17 00:32:37;;;;;;;10.87;9.83;;;;;21.60;100427.00;;;;2076455;28;20218;-66
2021/01/17 00:33:37;;;;;;;9.80;9.00;;;;;21.60;100424.00;;;;2072224;28;20302;-66
2021/01/17 00:34:41;;;;;;;10.10;9.23;;;;;21.60;100421.00;;;;2071829;28;20206;-66
2021/01/17 00:35:41;;;;;;;10.30;9.43;;;;;21.60;100392.00;;;;2066597;28;20211;-66
2021/01/17 00:36:44;;;;;;;11.40;10.40;;;;;21.60;100417.00;;;;2069737;28;20688;-65
2021/01/17 00:37:45;;;;;;;9.25;8.45;;;;;21.60;100413.00;;;;2066096;28;20301;-65
2021/01/17 00:38:45;;;;;;;10.20;9.30;;;;;21.60;100424.00;;;;2064322;28;20199;-66
2021/01/17 00:39:45;;;;;;;10.37;9.47;;;;;21.60;100409.00;;;;2070455;28;20209;-65
2021/01/17 00:40:46;;;;;;;10.70;9.70;;;;;21.60;100416.00;;;;2049338;28;20216;-66
2021/01/17 00:41:46;;;;;;;11.00;10.00;;;;;21.60;100412.00;;;;2053797;28;20219;-66
2021/01/17 00:42:47;;;;;;;10.23;9.33;;;;;21.60;100415.00;;;;2066243;28;20243;-65
2021/01/17 00:43:47;;;;;;;9.03;8.30;;;;;21.60;100419.00;;;;2069976;28;20244;-65
2021/01/17 00:44:49;;;;;;;10.20;9.30;;;;;21.60;100414.00;;;;2064901;28;20454;-65
2021/01/17 00:45:49;;;;;;;10.25;9.35;;;;;21.50;100408.00;;;;2070990;28;20215;-65
2021/01/17 00:46:49;;;;;;;10.07;9.17;;;;;21.50;100409.00;;;;2065765;28;20235;-66
2021/01/17 00:47:50;;;;;;;9.67;8.87;;;;;21.60;100418.00;;;;2070068;28;20230;-66
2021/01/17 00:48:50;;;;;;;9.43;8.63;;;;;21.50;100417.00;;;;2065274;28;20790;-64
2021/01/17 00:49:51;;;;;;;9.80;9.00;;;;;21.50;100410.00;;;;2071556;28;20253;-64
2021/01/17 00:50:51;;;;;;;9.37;8.57;;;;;21.50;100417.00;;;;2065154;28;20231;-64
2021/01/17 00:51:51;;;;;;;9.83;8.87;;;;;21.50;100420.00;;;;2070836;28;20226;-64
2021/01/17 00:52:53;;;;;;;9.00;8.30;;;;;21.50;100417.00;;;;2072555;28;20226;-65
2021/01/17 00:53:53;;;;;;;9.30;8.60;;;;;21.50;100418.00;;;;2064838;28;20236;-65
2021/01/17 00:54:53;;;;;;;9.07;8.33;;;;;21.50;100421.00;;;;2070761;28;20234;-66
2021/01/17 00:55:54;;;;;;;9.40;8.60;;;;;21.50;100438.00;;;;2064898;28;20222;-65
2021/01/17 00:56:54;;;;;;;10.10;9.20;;;;;21.50;100418.00;;;;2071486;28;20225;-65
2021/01/17 00:57:54;;;;;;;9.70;8.80;;;;;21.50;100412.00;;;;2064806;28;20818;-65
2021/01/17 00:58:54;;;;;;;9.90;9.00;;;;;21.50;100418.00;;;;2071712;28;20218;-65
2021/01/17 00:59:55;;;;;;;9.40;8.60;;;;;21.40;100412.00;;;;2064792;28;20564;-66
2021/01/17 01:00:55;;;;;;;9.57;8.77;;;;;21.50;100408.00;;;;2071619;28;20254;-65
2021/01/17 01:01:56;;;;;;;9.90;9.10;;;;;21.40;100416.00;;;;2068697;28;20303;-66
2021/01/17 01:02:56;;;;;;;9.23;8.43;;;;;21.50;100419.00;;;;2068737;28;20214;-65
2021/01/17 01:03:56;;;;;;;9.10;8.30;;;;;21.50;100420.00;;;;2071727;28;20578;-66
2021/01/17 01:04:56;;;;;;;9.43;8.67;;;;;21.40;100420.00;;;;2071571;28;20748;-66
2021/01/17 01:05:57;;;;;;;8.80;8.00;;;;;21.50;100414.00;;;;2071952;28;20715;-66
2021/01/17 01:06:57;;;;;;;10.10;9.20;;;;;21.40;100422.00;;;;2064037;28;20716;-66
2021/01/17 01:07:59;;;;;;;9.60;8.80;;;;;21.50;100411.00;;;;2070876;28;20680;-65
2021/01/17 01:09:01;;;;;;;8.93;8.18;;;;;21.40;100417.00;;;;2063766;28;20238;-66
2021/01/17 01:10:06;;;;;;;9.30;8.50;;;;;21.40;100414.00;;;;2064203;28;20705;-66
2021/01/17 01:11:06;;;;;;;8.50;7.80;;;;;21.40;100415.00;;;;2070407;28;20256;-66
2021/01/17 01:12:07;;;;;;;9.57;8.67;;;;;21.40;100408.00;;;;2064313;28;20215;-65
2021/01/17 01:13:07;;;;;;;8.90;8.20;;;;;21.40;100404.00;;;;2071323;28;20250;-65
2021/01/17 01:14:07;;;;;;;8.83;8.13;;;;;21.40;100410.00;;;;2064815;28;20244;-65
2021/01/17 01:15:08;;;;;;;9.17;8.47;;;;;21.40;100404.00;;;;2070708;28;20294;-66
2021/01/17 01:16:14;;;;;;;9.20;8.40;;;;;21.40;100405.00;;;;2065122;28;20227;-65
2021/01/17 01:17:15;;;;;;;9.07;8.27;;;;;21.40;100411.00;;;;2069376;28;20222;-66
2021/01/17 01:18:15;;;;;;;9.27;8.57;;;;;21.40;100401.00;;;;2065112;28;20626;-66
2021/01/17 01:19:16;;;;;;;9.50;8.80;;;;;21.40;100412.00;;;;2070123;28;20589;-65
2021/01/17 01:20:16;;;;;;;9.13;8.37;;;;;21.40;100406.00;;;;2065914;28;20207;-66
2021/01/17 01:21:27;;;;;;;8.40;7.80;;;;;21.40;100411.00;;;;2069867;28;20325;-66
2021/01/17 01:22:27;;;;;;;9.15;8.38;;;;;21.40;100401.00;;;;2066966;28;20300;-66
2021/01/17 01:23:27;;;;;;;8.87;8.07;;;;;21.30;100410.00;;;;2067764;28;20683;-65
2021/01/17 01:24:29;;;;;;;9.10;8.30;;;;;21.30;100409.00;;;;2066022;28;20219;-66
2021/01/17 01:25:30;;;;;;;8.25;7.55;;;;;21.30;100411.00;;;;2067117;28;20215;-66
2021/01/17 01:26:37;;;;;;;9.63;8.93;;;;;21.30;100403.00;;;;2067478;28;20234;-66
2021/01/17 01:27:38;;;;;;;9.30;8.50;;;;;21.40;100411.00;;;;2056121;28;20221;-66
2021/01/17 01:28:38;;;;;;;9.57;8.77;;;;;21.30;100410.00;;;;2076480;28;20221;-65
2021/01/17 01:29:39;;;;;;;9.27;8.47;;;;;21.30;100414.00;;;;2074716;28;20613;-65
2021/01/17 01:30:39;;;;;;;8.60;7.90;;;;;21.30;100408.00;;;;2068925;28;20597;-65
2021/01/17 01:31:40;;;;;;;9.50;8.60;;;;;21.20;100412.00;;;;2071794;28;20239;-66
2021/01/17 01:32:41;;;;;;;8.88;8.10;;;;;21.30;100410.00;;;;2066542;28;20584;-65
2021/01/17 01:33:41;;;;;;;8.87;8.17;;;;;21.30;100419.00;;;;2073784;28;20217;-66
2021/01/17 01:34:42;;;;;;;8.73;8.03;;;;;21.30;100421.00;;;;2071985;28;20457;-66
2021/01/17 01:35:42;;;;;;;8.80;8.00;;;;;21.30;100412.00;;;;2065650;28;20221;-66
2021/01/17 01:36:42;;;;;;;8.50;7.80;;;;;21.20;100424.00;;;;2068804;28;20242;-65
2021/01/17 01:37:43;;;;;;;8.03;7.40;;;;;21.20;100416.00;;;;2065968;28;20296;-66
2021/01/17 01:38:43;;;;;;;8.50;7.80;;;;;21.20;100413.00;;;;2070047;28;20979;-66
2021/01/17 01:39:44;;;;;;;8.30;7.70;;;;;21.20;100417.00;;;;2066172;28;20710;-65
2021/01/17 01:40:54;;;;;;;8.27;7.57;;;;;21.20;100413.00;;;;2069832;28;20229;-66
2021/01/17 01:41:54;;;;;;;8.50;7.90;;;;;21.20;100419.00;;;;2063597;28;20242;-65
2021/01/17 01:42:54;;;;;;;8.77;8.10;;;;;21.20;100421.00;;;;2071303;28;20207;-66
2021/01/17 01:43:55;;;;;;;7.87;7.27;;;;;21.20;100417.00;;;;2061004;28;20225;-66
2021/01/17 01:44:55;;;;;;;9.70;8.90;;;;;21.20;100424.00;;;;2070445;28;20218;-65
2021/01/17 01:45:55;;;;;;;8.50;7.80;;;;;21.20;100422.00;;;;2078740;28;20263;-65
2021/01/17 01:46:56;;;;;;;9.40;8.60;;;;;21.20;100413.00;;;;2063997;28;20211;-66
2021/01/17 01:47:56;;;;;;;9.00;8.20;;;;;21.10;100411.00;;;;2070622;28;21765;-66
2021/01/17 01:48:59;;;;;;;8.90;8.10;;;;;21.20;100408.00;;;;2063761;28;20234;-66
2021/01/17 01:49:59;;;;;;;7.85;7.20;;;;;21.20;100419.00;;;;2068597;28;20207;-66
2021/01/17 01:51:01;;;;;;;8.97;8.27;;;;;21.20;100404.00;;;;2078637;28;20226;-65
2021/01/17 01:52:01;;;;;;;8.13;7.53;;;;;21.20;100405.00;;;;2071226;28;20221;-66
2021/01/17 01:53:02;;;;;;;7.77;7.17;;;;;21.20;100418.00;;;;2062313;28;20222;-66
2021/01/17 01:54:02;;;;;;;8.87;8.10;;;;;21.10;100415.00;;;;2055554;28;20238;-66
2021/01/17 01:55:03;;;;;;;9.27;8.47;;;;;21.10;100417.00;;;;2068396;28;20273;-65
2021/01/17 01:56:03;;;;;;;8.10;7.40;;;;;21.20;100412.00;;;;2068055;28;20229;-65
2021/01/17 01:57:04;;;;;;;8.77;8.07;;;;;21.10;100413.00;;;;2070536;28;20225;-65
2021/01/17 01:58:05;;;;;;;8.20;7.50;;;;;21.10;100416.00;;;;2055018;28;20220;-65
2021/01/17 01:59:06;;;;;;;8.65;7.95;;;;;21.10;100413.00;;;;2063877;28;20285;-65
2021/01/17 02:00:06;;;;;;;7.97;7.27;;;;;21.10;100418.00;;;;2070965;28;20685;-65
2021/01/17 02:01:07;;;;;;;8.63;7.83;;;;;21.10;100413.00;;;;2064682;28;20242;-65
2021/01/17 02:02:07;;;;;;;8.37;7.77;;;;;21.10;100413.00;;;;2070160;28;20278;-65
2021/01/17 02:03:08;;;;;;;8.13;7.53;;;;;21.10;100409.00;;;;2064008;28;20211;-66
2021/01/17 02:04:09;;;;;;;8.80;8.10;;;;;21.10;100402.00;;;;2069865;28;20453;-65
2021/01/17 02:05:09;;;;;;;9.50;8.70;;;;;21.10;100413.00;;;;2068805;28;20302;-65
2021/01/17 02:06:13;;;;;;;8.63;7.93;;;;;21.10;100417.00;;;;2071283;28;20501;-65
2021/01/17 02:07:13;;;;;;;8.20;7.50;;;;;21.10;100417.00;;;;2071319;28;20219;-65
2021/01/17 02:08:40;;;;;;;9.10;8.30;;;;;21.10;100411.00;;;;2069739;28;20222;-65
2021/01/17 02:09:41;;;;;;;9.43;8.63;;;;;21.10;100413.00;;;;2054468;28;20216;-65
2021/01/17 02:10:42;;;;;;;8.20;7.50;;;;;21.00;100409.00;;;;2048523;28;20217;-66
2021/01/17 02:12:03;;;;;;;9.15;8.35;;;;;21.00;100415.00;;;;2068411;28;20578;-66
2021/01/17 02:13:20;;;;;;;8.85;8.15;;;;;21.10;100418.00;;;;2071661;28;20207;-67
2021/01/17 02:14:32;;;;;;;8.23;7.53;;;;;21.10;100407.00;;;;2059859;28;21318;-67
2021/01/17 02:15:33;;;;;;;8.52;7.80;;;;;21.00;100411.00;;;;2057401;28;20326;-67
2021/01/17 02:16:35;;;;;;;8.23;7.53;;;;;21.10;100407.00;;;;2075323;28;21113;-67
2021/01/17 02:17:35;;;;;;;8.60;7.80;;;;;21.00;100407.00;;;;2056474;28;20625;-67
2021/01/17 02:18:37;;;;;;;7.43;6.83;;;;;21.00;100401.00;;;;2059502;28;20235;-67
2021/01/17 02:19:58;;;;;;;8.93;8.23;;;;;21.00;100409.00;;;;2065687;28;20744;-67
2021/01/17 02:20:59;;;;;;;9.10;8.30;;;;;21.00;100406.00;;;;2065010;28;20709;-68
2021/01/17 02:21:59;;;;;;;9.43;8.20;;;;;21.00;100413.00;;;;2062876;28;20213;-67
2021/01/17 02:22:59;;;;;;;8.63;7.83;;;;;21.00;100408.00;;;;2054742;28;20263;-67
2021/01/17 02:24:03;;;;;;;8.50;7.80;;;;;21.00;100415.00;;;;2062370;28;20306;-68
2021/01/17 02:25:05;;;;;;;8.30;7.63;;;;;21.00;100418.00;;;;2062524;28;20218;-67
2021/01/17 02:26:06;;;;;;;7.85;7.25;;;;;20.90;100421.00;;;;2070011;28;20297;-68
2021/01/17 02:27:07;;;;;;;8.80;8.10;;;;;20.90;100416.00;;;;2064300;28;20218;-67
2021/01/17 02:28:25;;;;;;;8.37;7.70;;;;;21.00;100431.00;;;;2058516;28;20214;-67
2021/01/17 02:29:26;;;;;;;8.90;8.10;;;;;20.90;100422.00;;;;2057091;28;20597;-67
2021/01/17 02:30:27;;;;;;;8.37;7.70;;;;;21.00;100419.00;;;;2057937;28;20309;-67
2021/01/17 02:31:28;;;;;;;8.63;7.93;;;;;21.00;100414.00;;;;2062775;28;20886;-67
2021/01/17 02:32:29;;;;;;;7.93;7.30;;;;;21.00;100420.00;;;;2054520;28;20258;-67
2021/01/17 02:33:32;;;;;;;8.45;7.75;;;;;20.90;100408.00;;;;2058742;28;20277;-67
2021/01/17 02:34:32;;;;;;;8.82;8.00;;;;;20.90;100416.00;;;;2073839;28;20222;-67
2021/01/17 02:35:32;;;;;;;8.60;7.90;;;;;20.90;100412.00;;;;2062597;28;21087;-67
2021/01/17 02:37:07;;;;;;;8.83;8.03;;;;;20.90;100408.00;;;;2055611;28;20659;-67
2021/01/17 02:38:29;;;;;;;8.63;7.82;;;;;20.90;100409.00;;;;2063778;28;20221;-67
2021/01/17 02:39:50;;;;;;;8.63;7.82;;;;;20.90;100412.00;;;;2067385;28;20215;-67
2021/01/17 02:40:58;;;;;;;8.07;7.38;;;;;20.90;100404.00;;;;2069400;28;20310;-67
2021/01/17 02:42:02;;;;;;;9.73;8.85;;;;;20.90;100405.00;;;;2056905;28;20223;-67
2021/01/17 02:43:03;;;;;;;8.30;7.60;;;;;20.90;100410.00;;;;2063127;28;20621;-67
2021/01/17 02:44:03;;;;;;;8.17;7.47;;;;;20.90;100412.00;;;;2062044;28;20250;-67
2021/01/17 02:45:04;;;;;;;8.33;7.63;;;;;20.90;100402.00;;;;2053812;28;20227;-67
2021/01/17 02:46:05;;;;;;;8.52;7.82;;;;;20.90;100403.00;;;;2063106;28;20234;-67
2021/01/17 02:47:05;;;;;;;8.53;7.83;;;;;20.90;100405.00;;;;2062372;28;20219;-67
2021/01/17 02:48:06;;;;;;;8.47;7.77;;;;;20.80;100400.00;;;;2063677;28;20343;-67
2021/01/17 02:49:07;;;;;;;8.05;7.45;;;;;20.80;100403.00;;;;2070342;28;20242;-67
2021/01/17 02:50:08;;;;;;;8.90;8.10;;;;;20.80;100399.00;;;;2064034;28;20227;-66
2021/01/17 02:51:08;;;;;;;8.35;7.65;;;;;20.90;100398.00;;;;2070255;28;20245;-67
2021/01/17 02:52:09;;;;;;;9.30;8.53;;;;;20.80;100398.00;;;;2064336;28;20226;-67
2021/01/17 02:53:24;;;;;;;8.03;7.40;;;;;20.90;100410.00;;;;2061125;28;20226;-67
2021/01/17 02:54:40;;;;;;;8.02;7.35;;;;;20.80;100399.00;;;;2059405;28;20238;-67
2021/01/17 02:55:40;;;;;;;8.95;8.23;;;;;20.80;100392.00;;;;2064977;28;20226;-67
2021/01/17 02:56:44;;;;;;;8.70;8.00;;;;;20.80;100401.00;;;;2062449;28;20640;-67
2021/01/17 02:57:44;;;;;;;8.80;8.05;;;;;20.80;100398.00;;;;2075509;28;20226;-67
2021/01/17 02:58:49;;;;;;;8.53;7.83;;;;;20.80;100406.00;;;;2062441;28;20219;-67
2021/01/17 02:59:59;;;;;;;9.40;8.50;;;;;20.80;100400.00;;;;2068927;28;20217;-67
2021/01/17 03:01:00;;;;;;;8.50;7.80;;;;;20.80;100396.00;;;;2054568;28;20726;-67
2021/01/17 03:02:02;;;;;;;8.43;7.73;;;;;20.80;100402.00;;;;2054981;28;20249;-67
2021/01/17 03:03:03;;;;;;;8.35;7.65;;;;;20.80;100404.00;;;;2062657;28;20308;-67
2021/01/17 03:04:24;;;;;;;8.13;7.43;;;;;20.80;100401.00;;;;2070001;28;20610;-67
2021/01/17 03:05:24;;;;;;;8.77;8.07;;;;;20.80;100398.00;;;;2066189;28;20317;-67
2021/01/17 03:06:26;;;;;;;8.10;7.40;;;;;20.80;100405.00;;;;2068122;28;20730;-67
2021/01/17 03:07:30;;;;;;;8.38;7.68;;;;;20.80;100404.00;;;;2066852;28;20310;-67
2021/01/17 03:08:30;;;;;;;8.82;8.13;;;;;20.70;100405.00;;;;2059030;28;20217;-67
2021/01/17 03:09:30;;;;;;;8.20;7.60;;;;;20.80;100404.00;;;;2063456;28;20226;-67
2021/01/17 03:10:31;;;;;;;9.00;8.20;;;;;20.70;100402.00;;;;2066988;28;20218;-67
2021/01/17 03:11:31;;;;;;;9.27;8.47;;;;;20.70;100396.00;;;;2070567;28;20715;-67
2021/01/17 03:12:31;;;;;;;7.97;7.37;;;;;20.70;100403.00;;;;2070393;28;20316;-67
2021/01/17 03:13:36;;;;;;;8.00;7.40;;;;;20.70;100406.00;;;;2066924;28;20215;-67
2021/01/17 03:14:36;;;;;;;7.80;7.20;;;;;20.70;100405.00;;;;2066349;28;20248;-67
2021/01/17 03:15:37;;;;;;;8.27;7.57;;;;;20.70;100401.00;;;;2065515;28;20231;-67
2021/01/17 03:16:37;;;;;;;8.23;7.63;;;;;20.70;100399.00;;;;2065368;28;20219;-67
2021/01/17 03:17:37;;;;;;;9.20;8.40;;;;;20.70;100400.00;;;;2067061;28;20268;-67
2021/01/17 03:18:38;;;;;;;8.30;7.60;;;;;20.70;100401.00;;;;2068064;28;20237;-67
2021/01/17 03:19:38;;;;;;;8.33;7.73;;;;;20.70;100403.00;;;;2066131;28;20215;-67
2021/01/17 03:20:38;;;;;;;9.77;8.87;;;;;20.70;100402.00;;;;2068056;28;20218;-67
2021/01/17 03:21:39;;;;;;;8.37;7.67;;;;;20.70;100391.00;;;;2065339;28;20293;-67
2021/01/17 03:22:39;;;;;;;9.00;8.20;;;;;20.70;100395.00;;;;2067451;28;20220;-67
2021/01/17 03:23:39;;;;;;;8.17;7.47;;;;;20.70;100393.00;;;;2065798;28;20563;-67
2021/01/17 03:24:40;;;;;;;8.37;7.70;;;;;20.70;100396.00;;;;2067369;28;20980;-67
2021/01/17 03:25:40;;;;;;;7.83;7.23;;;;;20.60;100390.00;;;;2065467;28;20640;-67
2021/01/17 03:26:40;;;;;;;8.00;7.33;;;;;20.70;100400.00;;;;2067878;28;20340;-67
2021/01/17 03:27:41;;;;;;;8.50;7.80;;;;;20.70;100389.00;;;;2064661;28;20218;-67
2021/01/17 03:28:41;;;;;;;8.57;7.87;;;;;20.70;100393.00;;;;2067686;28;20705;-66
2021/01/17 03:29:41;;;;;;;8.67;7.87;;;;;20.60;100387.00;;;;2065476;28;20245;-67
2021/01/17 03:30:42;;;;;;;8.17;7.47;;;;;20.60;100392.00;;;;2067465;28;20259;-67
2021/01/17 03:31:42;;;;;;;8.80;8.10;;;;;20.50;100392.00;;;;2064794;28;20221;-67
2021/01/17 03:32:42;;;;;;;8.33;7.63;;;;;20.70;100387.00;;;;2068450;28;20244;-67
2021/01/17 03:33:43;;;;;;;8.13;7.43;;;;;20.60;100392.00;;;;2065448;28;20223;-67
2021/01/17 03:34:48;;;;;;;8.10;7.50;;;;;20.60;100394.00;;;;2068032;28;20597;-67
2021/01/17 03:35:48;;;;;;;9.20;8.40;;;;;20.60;100389.00;;;;2063866;28;20237;-67
2021/01/17 03:36:48;;;;;;;9.23;8.53;;;;;20.60;100397.00;;;;2068789;28;20585;-67
2021/01/17 03:37:49;;;;;;;8.77;8.00;;;;;20.60;100398.00;;;;2064364;28;20230;-67
2021/01/17 03:38:49;;;;;;;9.20;8.50;;;;;20.60;100398.00;;;;2068837;28;20236;-67
2021/01/17 03:39:49;;;;;;;9.17;8.40;;;;;20.60;100401.00;;;;2072424;28;20668;-67
2021/01/17 03:40:50;;;;;;;8.13;7.43;;;;;20.60;100396.00;;;;2070804;28;20225;-67
2021/01/17 03:41:50;;;;;;;8.30;7.60;;;;;20.60;100401.00;;;;2070744;28;20216;-67
2021/01/17 03:42:50;;;;;;;8.83;8.13;;;;;20.60;100398.00;;;;2070933;28;20218;-67
2021/01/17 03:43:51;;;;;;;8.60;7.83;;;;;20.60;100402.00;;;;2064110;28;20210;-67
2021/01/17 03:44:51;;;;;;;9.10;8.30;;;;;20.60;100399.00;;;;2068508;28;20292;-67
2021/01/17 03:45:51;;;;;;;8.87;8.07;;;;;20.60;100391.00;;;;2063902;28;20676;-67
2021/01/17 03:46:52;;;;;;;8.60;7.90;;;;;20.50;100403.00;;;;2069153;28;20225;-67
2021/01/17 03:47:52;;;;;;;8.00;7.30;;;;;20.60;100407.00;;;;2070896;28;20233;-67
2021/01/17 03:48:52;;;;;;;8.63;7.93;;;;;20.60;100397.00;;;;2068901;28;20365;-66
2021/01/17 03:49:53;;;;;;;9.10;8.30;;;;;20.60;100409.00;;;;2070769;28;20720;-67
2021/01/17 03:50:53;;;;;;;9.10;8.40;;;;;20.60;100395.00;;;;2063514;28;20570;-67
2021/01/17 03:51:53;;;;;;;8.80;8.00;;;;;20.60;100408.00;;;;2062049;28;20218;-67
2021/01/17 03:52:54;;;;;;;9.33;8.53;;;;;20.60;100395.00;;;;2069119;28;20217;-67
2021/01/17 03:53:54;;;;;;;8.90;8.20;;;;;20.50;100394.00;;;;2062815;28;20301;-67
2021/01/17 03:54:54;;;;;;;8.10;7.40;;;;;20.50;100394.00;;;;2068885;28;20209;-67
2021/01/17 03:55:55;;;;;;;8.27;7.57;;;;;20.60;100397.00;;;;2062860;28;20593;-67
2021/01/17 03:56:56;;;;;;;8.93;8.23;;;;;20.50;100396.00;;;;2070110;28;20589;-67
2021/01/17 03:57:56;;;;;;;8.53;7.83;;;;;20.50;100402.00;;;;2077821;28;20538;-67
2021/01/17 03:58:56;;;;;;;8.90;8.20;;;;;20.50;100402.00;;;;2062747;28;20214;-67
2021/01/17 03:59:57;;;;;;;9.13;8.33;;;;;20.50;100400.00;;;;2070266;28;20225;-67
2021/01/17 04:00:57;;;;;;;9.20;8.40;;;;;20.50;100401.00;;;;2063053;28;20245;-68
2021/01/17 04:01:57;;;;;;;9.13;8.43;;;;;20.50;100404.00;;;;2070262;28;20209;-67
2021/01/17 04:02:58;;;;;;;9.17;8.37;;;;;20.50;100401.00;;;;2063175;28;20266;-67
2021/01/17 04:03:58;;;;;;;10.03;9.13;;;;;20.50;100406.00;;;;2069866;28;20270;-67
2021/01/17 04:04:58;;;;;;;9.40;8.60;;;;;20.50;100406.00;;;;2062005;28;20218;-67
2021/01/17 04:05:59;;;;;;;9.07;8.27;;;;;20.50;100407.00;;;;2072242;28;20700;-67
2021/01/17 04:06:59;;;;;;;9.37;8.57;;;;;20.50;100408.00;;;;2064402;28;20214;-67
2021/01/17 04:07:59;;;;;;;9.53;8.63;;;;;20.50;100401.00;;;;2072311;28;20238;-67
2021/01/17 04:09:00;;;;;;;9.40;8.50;;;;;20.50;100408.00;;;;2064309;28;20214;-67
2021/01/17 04:10:00;;;;;;;9.63;8.83;;;;;20.50;100394.00;;;;2072395;28;20225;-67
2021/01/17 04:11:00;;;;;;;9.93;9.03;;;;;20.40;100400.00;;;;2066785;28;20225;-67
2021/01/17 04:12:01;;;;;;;9.60;8.80;;;;;20.50;100404.00;;;;2072659;28;20307;-67
2021/01/17 04:13:01;;;;;;;9.27;8.53;;;;;20.50;100408.00;;;;2072307;28;20320;-67
2021/01/17 04:14:01;;;;;;;9.83;9.00;;;;;20.50;100402.00;;;;2072497;28;20214;-67
2021/01/17 04:15:02;;;;;;;9.80;8.90;;;;;20.50;100409.00;;;;2071223;28;20225;-67
2021/01/17 04:16:03;;;;;;;10.17;9.37;;;;;20.50;100412.00;;;;2064638;28;21137;-67
2021/01/17 04:17:03;;;;;;;10.23;9.20;;;;;20.40;100407.00;;;;2071989;28;20280;-67
2021/01/17 04:18:03;;;;;;;9.40;8.60;;;;;20.50;100395.00;;;;2063972;28;20826;-67
2021/01/17 04:19:04;;;;;;;10.40;9.50;;;;;20.50;100409.00;;;;2071379;28;20588;-67
2021/01/17 04:20:04;;;;;;;10.10;9.20;;;;;20.50;100407.00;;;;2064993;28;20970;-67
2021/01/17 04:21:05;;;;;;;9.93;9.10;;;;;20.40;100404.00;;;;2071561;28;20742;-67
2021/01/17 04:22:05;;;;;;;9.57;8.70;;;;;20.40;100404.00;;;;2065084;28;20873;-67
2021/01/17 04:23:05;;;;;;;9.80;9.00;;;;;20.40;100407.00;;;;2071053;28;20705;-67
2021/01/17 04:24:06;;;;;;;9.50;8.70;;;;;20.40;100402.00;;;;2064329;28;20210;-67
2021/01/17 04:25:07;;;;;;;9.83;8.93;;;;;20.40;100408.00;;;;2077925;28;20215;-67
2021/01/17 04:26:07;;;;;;;9.07;8.30;;;;;20.40;100406.00;;;;2072520;28;20267;-67
2021/01/17 04:27:08;;;;;;;10.17;9.30;;;;;20.30;100412.00;;;;2070408;28;20605;-67
2021/01/17 04:28:09;;;;;;;10.30;9.40;;;;;20.40;100406.00;;;;2062643;28;20293;-67
2021/01/17 04:29:09;;;;;;;9.48;8.68;;;;;20.40;100401.00;;;;2064665;28;20222;-66
2021/01/17 04:30:10;;;;;;;10.20;9.20;;;;;20.40;100401.00;;;;2064035;28;20218;-67
2021/01/17 04:31:10;;;;;;;9.63;8.83;;;;;20.40;100395.00;;;;2065338;28;20272;-67
2021/01/17 04:32:11;;;;;;;9.37;8.63;;;;;20.40;100398.00;;;;2070992;28;20264;-67
2021/01/17 04:33:11;;;;;;;10.80;9.80;;;;;20.40;100404.00;;;;2065683;28;20228;-67
2021/01/17 04:34:11;;;;;;;9.80;8.90;;;;;20.40;100397.00;;;;2072534;28;20233;-67
2021/01/17 04:35:13;;;;;;;9.37;8.57;;;;;20.40;100401.00;;;;2069903;28;20301;-67
2021/01/17 04:36:13;;;;;;;10.00;9.10;;;;;20.40;100385.00;;;;2066108;28;20212;-67
2021/01/17 04:37:14;;;;;;;9.83;8.93;;;;;20.40;100389.00;;;;2072257;28;20659;-67
2021/01/17 04:38:14;;;;;;;10.30;9.40;;;;;20.40;100391.00;;;;2070444;28;20627;-67
2021/01/17 04:39:15;;;;;;;10.30;9.40;;;;;20.40;100388.00;;;;2065396;28;21421;-67
2021/01/17 04:40:17;;;;;;;10.20;9.40;;;;;20.40;100390.00;;;;2061589;28;20665;-67
2021/01/17 04:41:17;;;;;;;10.25;9.35;;;;;20.40;100392.00;;;;2066836;28;21196;-67
2021/01/17 04:42:19;;;;;;;10.80;9.73;;;;;20.40;100386.00;;;;2075173;28;20217;-67
2021/01/17 04:43:30;;;;;;;9.93;9.02;;;;;20.40;100387.00;;;;2076273;28;20273;-67
2021/01/17 04:44:34;;;;;;;10.95;9.85;;;;;20.40;100395.00;;;;2067682;28;20283;-67
2021/01/17 04:45:35;;;;;;;10.32;9.43;;;;;20.30;100399.00;;;;2067410;28;20219;-67
2021/01/17 04:46:36;;;;;;;10.93;9.73;;;;;20.30;100385.00;;;;2069109;28;20213;-66
2021/01/17 04:47:37;;;;;;;10.60;9.60;;;;;20.30;100387.00;;;;2066525;28;20210;-67
2021/01/17 04:48:37;;;;;;;10.20;9.30;;;;;20.30;100379.00;;;;2068629;28;20210;-67
2021/01/17 04:49:38;;;;;;;9.40;8.60;;;;;20.40;100388.00;;;;2068544;28;20397;-67
2021/01/17 04:50:38;;;;;;;10.73;9.73;;;;;20.30;100390.00;;;;2060552;28;20207;-67
2021/01/17 04:51:39;;;;;;;10.40;9.33;;;;;20.40;100392.00;;;;2055288;28;20208;-67
2021/01/17 04:52:52;;;;;;;9.93;9.03;;;;;20.40;100388.00;;;;2063609;28;20205;-67
2021/01/17 04:53:52;;;;;;;10.70;9.70;;;;;20.30;100389.00;;;;2057278;28;21148;-67
2021/01/17 04:54:53;;;;;;;10.63;9.63;;;;;20.30;100386.00;;;;2059335;28;20313;-67
2021/01/17 04:55:58;;;;;;;10.33;9.33;;;;;20.30;100374.00;;;;2064508;28;20226;-67
2021/01/17 04:56:59;;;;;;;11.15;10.15;;;;;20.30;100382.00;;;;2071020;28;20302;-66
2021/01/17 04:58:19;;;;;;;11.20;10.15;;;;;20.30;100379.00;;;;2063570;28;20229;-67
2021/01/17 04:59:24;;;;;;;9.85;9.00;;;;;20.30;100372.00;;;;2066541;28;20314;-67
2021/01/17 05:00:27;;;;;;;10.95;10.02;;;;;20.30;100378.00;;;;2068479;28;20222;-67
2021/01/17 05:02:05;;;;;;;11.10;10.10;;;;;20.30;100374.00;;;;2060231;28;20253;-67
2021/01/17 05:03:18;;;;;;;10.95;9.95;;;;;20.30;100366.00;;;;2054894;28;20215;-67
2021/01/17 05:04:28;;;;;;;10.20;9.30;;;;;20.30;100374.00;;;;2069223;28;20230;-67